Portada
METAR-TAF:

METAR-TAF

Aeropuertos :

Aeropuerto Internacional Josefa Camejo

Paraguaná, Venezuela

latitud: 11-47N, longitud: 070-09W, altitud: 23 m

METAR: falta

Hora: 16:07 (20:07 UTC)

Pronóstico

El informe se hizo hace 4 horas y 7 minutos, a las 16:00 UTC
Pronóstico válido del 19 a las 18 UTC al 20 a las 18 UTC
Viento 11 kt del este
Visibilidad 10 km o más
Cielo nuboso a una altura de 1300 ft
Temporalmente
del 19 a las 18 UTC al 19 a las 22 UTC
Viento 12 kt del este
Visibilidad: 8000 m
Cielo nuboso a una altura de 1000 ft
llovizna fuerte

TAF: SVJC 191600Z 1918/2018 08011KT 9999 BKN013 TX32/19Z TN23/09Z TEMPO 1918/1922 10012KT 8000 +DZ BKN010

Observaciones y pronósticos meteorológicos de más de 4000 aeropuertos (mensajes METAR y TAF).

Los puntos amarillos y rojos representan las estaciones disponibles.

Ponga el ratón en el punto deseado para ver el nombre de la estación.

Haga clic para ver las observaciones y los pronósticos meteorológicos.

Para cambiar el mapa : haga clic en los botones verdes con una cruz de color negro para hacer un zoom, en el botón verde con un guión para alejar o en las flechas verdes para mapas adyacentes.


METAR-TAF: